Fresh Pond, California
Current Conditions -  °F | °C
As of 12:15 PM on Friday 19 Dec 2014 (Local Time) from KPVF Reporting Station
Broken Clouds Broken Clouds  
Wind Chill: 36°   Ceiling: 4100
Heat Index: 43°   Visibility: 5mi
Dew Point: 43°   Wind: 13mph
Humidity: 100%   Direction: 120°ESE
Pressure: 30.19"   Gusts: NA
Location:  38.7953°N, 120.483°W
Report Text: KPVF 192015Z AUTO 12011KT 5SM FEW034 BKN041 BKN047 06/06 A3019 RMK AO1 P0001
Loading
Personal Weather Stations






























Interactive Weather Map New forecast layout! Learn more

10-Day Weather Forecast

Advertisements
Track Severe Weather on mobile